sensor_id;sensor_type;location;lat;lon;timestamp;pressure;altitude;pressure_sealevel;temperature;humidity
35307;BME280;21420;52.196;21.416;2023-02-12T00:00:45;101462.45;;;2.25;72.57
35307;BME280;21420;52.196;21.416;2023-02-12T00:03:14;101466.86;;;2.22;72.58
35307;BME280;21420;52.196;21.416;2023-02-12T00:05:41;101464.46;;;2.19;72.60
35307;BME280;21420;52.196;21.416;2023-02-12T00:08:09;101463.19;;;2.17;72.66
35307;BME280;21420;52.196;21.416;2023-02-12T00:10:42;101463.70;;;2.14;72.59
35307;BME280;21420;52.196;21.416;2023-02-12T00:13:12;101467.73;;;2.12;72.63
35307;BME280;21420;52.196;21.416;2023-02-12T00:15:41;101468.75;;;2.13;72.63
35307;BME280;21420;52.196;21.416;2023-02-12T00:18:09;101473.83;;;2.13;72.55
35307;BME280;21420;52.196;21.416;2023-02-12T00:20:37;101484.31;;;2.12;72.49
35307;BME280;21420;52.196;21.416;2023-02-12T00:23:05;101489.34;;;2.13;72.49
35307;BME280;21420;52.196;21.416;2023-02-12T00:25:33;101498.74;;;2.12;72.53
35307;BME280;21420;52.196;21.416;2023-02-12T00:28:00;101504.13;;;2.10;72.54
35307;BME280;21420;52.196;21.416;2023-02-12T00:30:28;101500.92;;;2.05;72.50
35307;BME280;21420;52.196;21.416;2023-02-12T00:32:55;101498.78;;;2.02;72.45
35307;BME280;21420;52.196;21.416;2023-02-12T00:35:22;101501.05;;;1.98;72.54
35307;BME280;21420;52.196;21.416;2023-02-12T00:37:50;101511.09;;;1.97;72.37
35307;BME280;21420;52.196;21.416;2023-02-12T00:40:17;101514.63;;;1.99;72.47
35307;BME280;21420;52.196;21.416;2023-02-12T00:42:45;101516.45;;;1.98;72.46
35307;BME280;21420;52.196;21.416;2023-02-12T00:45:12;101518.92;;;1.97;72.58
35307;BME280;21420;52.196;21.416;2023-02-12T00:47:39;101521.79;;;1.97;72.38
35307;BME280;21420;52.196;21.416;2023-02-12T00:50:07;101521.29;;;1.95;72.49
35307;BME280;21420;52.196;21.416;2023-02-12T00:52:34;101522.98;;;1.93;72.44
35307;BME280;21420;52.196;21.416;2023-02-12T00:55:01;101526.04;;;1.87;72.34
35307;BME280;21420;52.196;21.416;2023-02-12T00:57:29;101531.62;;;1.84;72.35
35307;BME280;21420;52.196;21.416;2023-02-12T00:59:56;101528.66;;;1.81;72.39
35307;BME280;21420;52.196;21.416;2023-02-12T01:02:23;101535.72;;;1.80;72.25
35307;BME280;21420;52.196;21.416;2023-02-12T01:04:51;101533.99;;;1.76;72.22
35307;BME280;21420;52.196;21.416;2023-02-12T01:07:18;101538.48;;;1.73;72.20
35307;BME280;21420;52.196;21.416;2023-02-12T01:09:45;101548.26;;;1.69;72.25
35307;BME280;21420;52.196;21.416;2023-02-12T01:12:12;101552.02;;;1.68;72.34
35307;BME280;21420;52.196;21.416;2023-02-12T01:14:38;101553.61;;;1.70;72.48
35307;BME280;21420;52.196;21.416;2023-02-12T01:17:08;101558.75;;;1.73;72.39
35307;BME280;21420;52.196;21.416;2023-02-12T01:19:35;101565.06;;;1.85;72.55
35307;BME280;21420;52.196;21.416;2023-02-12T01:22:02;101566.92;;;1.86;72.42
35307;BME280;21420;52.196;21.416;2023-02-12T01:24:29;101564.52;;;1.80;72.17
35307;BME280;21420;52.196;21.416;2023-02-12T01:26:57;101567.15;;;1.73;72.05
35307;BME280;21420;52.196;21.416;2023-02-12T01:29:24;101579.09;;;1.65;71.92
35307;BME280;21420;52.196;21.416;2023-02-12T01:31:51;101579.04;;;1.58;72.05
35307;BME280;21420;52.196;21.416;2023-02-12T01:34:18;101581.97;;;1.52;71.96
35307;BME280;21420;52.196;21.416;2023-02-12T01:36:45;101582.84;;;1.49;71.96
35307;BME280;21420;52.196;21.416;2023-02-12T01:39:12;101579.70;;;1.48;72.02
35307;BME280;21420;52.196;21.416;2023-02-12T01:41:42;101576.64;;;1.46;72.16
35307;BME280;21420;52.196;21.416;2023-02-12T01:44:17;101579.48;;;1.41;71.99
35307;BME280;21420;52.196;21.416;2023-02-12T01:46:48;101587.64;;;1.41;72.02
35307;BME280;21420;52.196;21.416;2023-02-12T01:49:21;101593.27;;;1.42;72.03
35307;BME280;21420;52.196;21.416;2023-02-12T01:51:57;101588.99;;;1.42;72.09
35307;BME280;21420;52.196;21.416;2023-02-12T01:54:25;101596.92;;;1.42;72.03
35307;BME280;21420;52.196;21.416;2023-02-12T01:56:54;101600.46;;;1.40;72.01
35307;BME280;21420;52.196;21.416;2023-02-12T01:59:21;101602.70;;;1.39;71.96
35307;BME280;21420;52.196;21.416;2023-02-12T02:01:49;101604.30;;;1.38;71.93
35307;BME280;21420;52.196;21.416;2023-02-12T02:04:21;101607.50;;;1.39;72.06
35307;BME280;21420;52.196;21.416;2023-02-12T02:06:53;101610.61;;;1.40;72.05
35307;BME280;21420;52.196;21.416;2023-02-12T02:09:22;101608.39;;;1.40;71.95
35307;BME280;21420;52.196;21.416;2023-02-12T02:11:51;101615.10;;;1.40;71.91
35307;BME280;21420;52.196;21.416;2023-02-12T02:14:37;101621.21;;;1.39;71.91
35307;BME280;21420;52.196;21.416;2023-02-12T02:31:55;101675.01;;;1.34;71.92
35307;BME280;21420;52.196;21.416;2023-02-12T02:34:49;101677.89;;;1.35;71.98
35307;BME280;21420;52.196;21.416;2023-02-12T02:38:09;101679.93;;;1.35;71.84
35307;BME280;21420;52.196;21.416;2023-02-12T02:40:18;101690.93;;;1.31;71.73
35307;BME280;21420;52.196;21.416;2023-02-12T02:42:53;101688.42;;;1.30;71.82
35307;BME280;21420;52.196;21.416;2023-02-12T02:45:39;101697.73;;;1.28;71.74
35307;BME280;21420;52.196;21.416;2023-02-12T02:48:24;101698.87;;;1.28;71.78
35307;BME280;21420;52.196;21.416;2023-02-12T02:50:58;101707.36;;;1.29;71.79
35307;BME280;21420;52.196;21.416;2023-02-12T02:53:31;101715.70;;;1.28;71.78
35307;BME280;21420;52.196;21.416;2023-02-12T02:56:01;101714.20;;;1.29;71.69
35307;BME280;21420;52.196;21.416;2023-02-12T02:58:38;101727.27;;;1.25;71.68
35307;BME280;21420;52.196;21.416;2023-02-12T03:01:15;101738.04;;;1.22;71.70
35307;BME280;21420;52.196;21.416;2023-02-12T03:03:50;101734.42;;;1.22;71.72
35307;BME280;21420;52.196;21.416;2023-02-12T03:06:27;101746.93;;;1.23;71.67
35307;BME280;21420;52.196;21.416;2023-02-12T03:09:02;101756.65;;;1.24;71.81
35307;BME280;21420;52.196;21.416;2023-02-12T03:11:32;101763.62;;;1.24;71.71
35307;BME280;21420;52.196;21.416;2023-02-12T03:14:17;101776.17;;;1.23;71.76
35307;BME280;21420;52.196;21.416;2023-02-12T03:17:02;101789.32;;;1.22;71.70
35307;BME280;21420;52.196;21.416;2023-02-12T03:19:45;101797.62;;;1.24;71.67
35307;BME280;21420;52.196;21.416;2023-02-12T03:22:17;101799.31;;;1.25;71.61
35307;BME280;21420;52.196;21.416;2023-02-12T03:25:00;101800.23;;;1.25;71.60
35307;BME280;21420;52.196;21.416;2023-02-12T03:27:38;101807.00;;;1.24;71.41
35307;BME280;21420;52.196;21.416;2023-02-12T03:30:08;101814.40;;;1.23;71.41
35307;BME280;21420;52.196;21.416;2023-02-12T03:37:59;101831.20;;;1.14;71.43
35307;BME280;21420;52.196;21.416;2023-02-12T03:43:47;101839.30;;;1.04;71.34
35307;BME280;21420;52.196;21.416;2023-02-12T03:49:00;101849.48;;;1.01;71.35
35307;BME280;21420;52.196;21.416;2023-02-12T03:51:37;101854.74;;;1.02;71.45
35307;BME280;21420;52.196;21.416;2023-02-12T03:54:07;101863.26;;;1.02;71.34
35307;BME280;21420;52.196;21.416;2023-02-12T03:56:49;101865.81;;;1.00;71.26
35307;BME280;21420;52.196;21.416;2023-02-12T03:59:19;101868.77;;;0.97;71.49
35307;BME280;21420;52.196;21.416;2023-02-12T04:01:49;101869.95;;;0.97;71.48
35307;BME280;21420;52.196;21.416;2023-02-12T04:04:17;101873.16;;;0.98;71.47
35307;BME280;21420;52.196;21.416;2023-02-12T04:06:47;101874.28;;;0.98;71.47
35307;BME280;21420;52.196;21.416;2023-02-12T04:09:15;101875.67;;;0.97;71.44
35307;BME280;21420;52.196;21.416;2023-02-12T04:15:08;101872.39;;;0.98;71.36
35307;BME280;21420;52.196;21.416;2023-02-12T04:17:55;101879.94;;;1.00;71.39
35307;BME280;21420;52.196;21.416;2023-02-12T04:20:49;101885.96;;;1.02;71.42
35307;BME280;21420;52.196;21.416;2023-02-12T04:31:33;101885.22;;;0.97;71.24
35307;BME280;21420;52.196;21.416;2023-02-12T04:34:17;101886.70;;;0.96;71.22
35307;BME280;21420;52.196;21.416;2023-02-12T04:37:06;101888.06;;;0.96;71.25
35307;BME280;21420;52.196;21.416;2023-02-12T04:39:37;101891.45;;;0.99;71.41
35307;BME280;21420;52.196;21.416;2023-02-12T04:42:06;101894.13;;;1.02;71.34
35307;BME280;21420;52.196;21.416;2023-02-12T04:44:37;101898.16;;;1.04;71.33
35307;BME280;21420;52.196;21.416;2023-02-12T04:47:04;101901.90;;;1.07;71.33
35307;BME280;21420;52.196;21.416;2023-02-12T04:49:34;101905.09;;;1.10;71.44
35307;BME280;21420;52.196;21.416;2023-02-12T04:52:01;101911.07;;;1.12;71.45
35307;BME280;21420;52.196;21.416;2023-02-12T04:54:28;101910.95;;;1.11;71.39
35307;BME280;21420;52.196;21.416;2023-02-12T04:56:55;101912.33;;;1.10;71.33
35307;BME280;21420;52.196;21.416;2023-02-12T04:59:27;101911.95;;;1.11;71.46
35307;BME280;21420;52.196;21.416;2023-02-12T05:01:54;101922.58;;;1.11;71.48
35307;BME280;21420;52.196;21.416;2023-02-12T05:04:21;101926.38;;;1.11;71.30
35307;BME280;21420;52.196;21.416;2023-02-12T05:06:48;101924.84;;;1.12;71.32
35307;BME280;21420;52.196;21.416;2023-02-12T05:09:17;101929.46;;;1.14;71.18
35307;BME280;21420;52.196;21.416;2023-02-12T05:11:44;101937.48;;;1.15;71.21
35307;BME280;21420;52.196;21.416;2023-02-12T05:14:12;101940.77;;;1.15;71.23
35307;BME280;21420;52.196;21.416;2023-02-12T05:16:39;101941.83;;;1.14;71.21
35307;BME280;21420;52.196;21.416;2023-02-12T05:19:06;101950.48;;;1.14;71.25
35307;BME280;21420;52.196;21.416;2023-02-12T05:21:36;101960.04;;;1.13;71.29
35307;BME280;21420;52.196;21.416;2023-02-12T05:24:04;101967.68;;;1.10;71.26
35307;BME280;21420;52.196;21.416;2023-02-12T05:26:31;101971.02;;;1.07;71.15
35307;BME280;21420;52.196;21.416;2023-02-12T05:28:57;101972.93;;;1.03;71.12
35307;BME280;21420;52.196;21.416;2023-02-12T05:31:24;101978.44;;;1.01;71.07
35307;BME280;21420;52.196;21.416;2023-02-12T05:33:52;101984.48;;;1.01;71.20
35307;BME280;21420;52.196;21.416;2023-02-12T05:36:21;101991.58;;;1.00;71.14
35307;BME280;21420;52.196;21.416;2023-02-12T05:38:50;101997.46;;;0.98;71.02
35307;BME280;21420;52.196;21.416;2023-02-12T05:41:20;102003.69;;;0.99;71.06
35307;BME280;21420;52.196;21.416;2023-02-12T05:43:47;102005.70;;;1.00;71.13
35307;BME280;21420;52.196;21.416;2023-02-12T05:46:16;102010.95;;;0.98;71.13
35307;BME280;21420;52.196;21.416;2023-02-12T05:48:44;102013.71;;;0.97;71.21
35307;BME280;21420;52.196;21.416;2023-02-12T05:51:14;102024.32;;;0.95;71.19
35307;BME280;21420;52.196;21.416;2023-02-12T05:53:42;102029.05;;;0.93;71.05
35307;BME280;21420;52.196;21.416;2023-02-12T05:56:12;102031.55;;;0.89;70.98
35307;BME280;21420;52.196;21.416;2023-02-12T05:58:42;102035.95;;;0.83;70.89
35307;BME280;21420;52.196;21.416;2023-02-12T06:01:16;102036.07;;;0.78;71.10
35307;BME280;21420;52.196;21.416;2023-02-12T06:03:43;102031.42;;;0.78;70.99
35307;BME280;21420;52.196;21.416;2023-02-12T06:06:11;102029.92;;;0.78;71.08
35307;BME280;21420;52.196;21.416;2023-02-12T06:08:41;102033.38;;;0.78;71.05
35307;BME280;21420;52.196;21.416;2023-02-12T06:11:12;102040.95;;;0.79;71.02
35307;BME280;21420;52.196;21.416;2023-02-12T06:13:40;102048.41;;;0.80;70.92
35307;BME280;21420;52.196;21.416;2023-02-12T06:16:22;102052.65;;;0.79;70.94
35307;BME280;21420;52.196;21.416;2023-02-12T06:18:51;102055.35;;;0.79;71.00
35307;BME280;21420;52.196;21.416;2023-02-12T06:21:19;102060.10;;;0.80;71.13
35307;BME280;21420;52.196;21.416;2023-02-12T06:23:47;102067.64;;;0.79;71.15
35307;BME280;21420;52.196;21.416;2023-02-12T06:26:16;102070.42;;;0.78;70.99
35307;BME280;21420;52.196;21.416;2023-02-12T06:28:43;102074.65;;;0.79;70.92
35307;BME280;21420;52.196;21.416;2023-02-12T06:33:51;102082.97;;;0.86;70.96
35307;BME280;21420;52.196;21.416;2023-02-12T06:36:19;102088.41;;;0.91;71.10
35307;BME280;21420;52.196;21.416;2023-02-12T06:38:46;102092.16;;;0.99;71.11
35307;BME280;21420;52.196;21.416;2023-02-12T06:41:14;102096.63;;;1.06;71.08
35307;BME280;21420;52.196;21.416;2023-02-12T06:43:41;102100.66;;;1.14;71.13
35307;BME280;21420;52.196;21.416;2023-02-12T06:46:08;102094.39;;;1.22;71.10
35307;BME280;21420;52.196;21.416;2023-02-12T06:48:35;102092.77;;;1.35;71.20
35307;BME280;21420;52.196;21.416;2023-02-12T06:51:14;102096.56;;;1.45;71.13
35307;BME280;21420;52.196;21.416;2023-02-12T06:53:42;102100.23;;;1.54;71.06
35307;BME280;21420;52.196;21.416;2023-02-12T06:56:11;102100.92;;;1.74;71.35
35307;BME280;21420;52.196;21.416;2023-02-12T06:58:40;102101.27;;;2.04;71.44
35307;BME280;21420;52.196;21.416;2023-02-12T07:01:16;102106.81;;;2.20;71.25
35307;BME280;21420;52.196;21.416;2023-02-12T07:03:52;102108.42;;;2.75;72.03
35307;BME280;21420;52.196;21.416;2023-02-12T07:06:21;102106.55;;;4.18;73.44
35307;BME280;21420;52.196;21.416;2023-02-12T07:08:48;102109.04;;;5.60;74.02
35307;BME280;21420;52.196;21.416;2023-02-12T07:11:15;102115.35;;;6.57;73.50
35307;BME280;21420;52.196;21.416;2023-02-12T07:13:43;102121.12;;;6.92;72.70
35307;BME280;21420;52.196;21.416;2023-02-12T07:16:13;102123.46;;;7.25;72.11
35307;BME280;21420;52.196;21.416;2023-02-12T07:18:42;102125.77;;;7.46;71.74
35307;BME280;21420;52.196;21.416;2023-02-12T07:21:10;102121.90;;;8.18;72.53
35307;BME280;21420;52.196;21.416;2023-02-12T07:23:38;102120.34;;;9.03;72.81
35307;BME280;21420;52.196;21.416;2023-02-12T07:26:11;102118.75;;;10.05;73.31
35307;BME280;21420;52.196;21.416;2023-02-12T07:28:38;102123.49;;;11.19;73.27
35307;BME280;21420;52.196;21.416;2023-02-12T07:31:10;102126.26;;;12.26;73.52
35307;BME280;21420;52.196;21.416;2023-02-12T07:33:38;102130.20;;;13.29;73.40
35307;BME280;21420;52.196;21.416;2023-02-12T07:36:13;102126.84;;;14.24;73.28
35307;BME280;21420;52.196;21.416;2023-02-12T07:38:40;102127.33;;;15.05;72.84
35307;BME280;21420;52.196;21.416;2023-02-12T07:41:16;102137.45;;;15.79;72.49
35307;BME280;21420;52.196;21.416;2023-02-12T07:43:45;102135.81;;;16.42;71.73
35307;BME280;21420;52.196;21.416;2023-02-12T07:46:15;102133.73;;;16.76;71.05
35307;BME280;21420;52.196;21.416;2023-02-12T07:48:44;102135.04;;;17.26;70.83
35307;BME280;21420;52.196;21.416;2023-02-12T07:51:14;102135.05;;;17.76;70.62
35307;BME280;21420;52.196;21.416;2023-02-12T07:53:41;102135.79;;;18.26;70.16
35307;BME280;21420;52.196;21.416;2023-02-12T07:56:14;102138.52;;;18.57;69.67
35307;BME280;21420;52.196;21.416;2023-02-12T07:58:43;102139.67;;;18.64;68.75
35307;BME280;21420;52.196;21.416;2023-02-12T08:01:34;102142.26;;;18.86;68.86
35307;BME280;21420;52.196;21.416;2023-02-12T08:04:05;102145.53;;;19.21;68.35
35307;BME280;21420;52.196;21.416;2023-02-12T08:06:35;102148.98;;;19.37;67.82
35307;BME280;21420;52.196;21.416;2023-02-12T08:09:05;102146.55;;;19.72;68.31
35307;BME280;21420;52.196;21.416;2023-02-12T08:11:36;102147.10;;;20.33;68.26
35307;BME280;21420;52.196;21.416;2023-02-12T08:14:04;102145.98;;;20.80;67.95
35307;BME280;21420;52.196;21.416;2023-02-12T08:16:35;102145.13;;;21.02;67.26
35307;BME280;21420;52.196;21.416;2023-02-12T08:19:03;102147.17;;;21.13;66.51
35307;BME280;21420;52.196;21.416;2023-02-12T08:21:45;102150.81;;;21.08;66.31
35307;BME280;21420;52.196;21.416;2023-02-12T08:24:14;102156.79;;;21.47;66.52
35307;BME280;21420;52.196;21.416;2023-02-12T08:26:41;102162.05;;;21.76;65.86
35307;BME280;21420;52.196;21.416;2023-02-12T08:29:11;102163.15;;;21.93;65.68
35307;BME280;21420;52.196;21.416;2023-02-12T08:31:41;102159.39;;;22.33;65.90
35307;BME280;21420;52.196;21.416;2023-02-12T08:34:30;102162.80;;;22.73;65.78
35307;BME280;21420;52.196;21.416;2023-02-12T08:36:57;102164.69;;;22.99;64.86
35307;BME280;21420;52.196;21.416;2023-02-12T08:39:27;102154.45;;;22.65;64.10
35307;BME280;21420;52.196;21.416;2023-02-12T08:41:55;102157.24;;;22.16;62.92
35307;BME280;21420;52.196;21.416;2023-02-12T08:44:23;102153.19;;;21.55;61.90
35307;BME280;21420;52.196;21.416;2023-02-12T08:46:51;102162.04;;;21.05;61.52
35307;BME280;21420;52.196;21.416;2023-02-12T08:49:21;102172.05;;;20.79;61.51
35307;BME280;21420;52.196;21.416;2023-02-12T08:51:52;102167.81;;;20.52;61.30
35307;BME280;21420;52.196;21.416;2023-02-12T08:54:45;102163.73;;;20.41;61.30
35307;BME280;21420;52.196;21.416;2023-02-12T08:57:18;102164.55;;;20.25;61.08
35307;BME280;21420;52.196;21.416;2023-02-12T08:59:51;102160.95;;;20.47;61.84
35307;BME280;21420;52.196;21.416;2023-02-12T09:02:18;102164.60;;;20.88;61.94
35307;BME280;21420;52.196;21.416;2023-02-12T09:04:45;102174.24;;;21.22;61.97
35307;BME280;21420;52.196;21.416;2023-02-12T09:07:12;102173.33;;;21.66;62.17
35307;BME280;21420;52.196;21.416;2023-02-12T09:09:39;102173.48;;;22.13;61.91
35307;BME280;21420;52.196;21.416;2023-02-12T09:12:06;102174.27;;;22.27;61.20
35307;BME280;21420;52.196;21.416;2023-02-12T09:14:33;102176.60;;;22.01;60.29
35307;BME280;21420;52.196;21.416;2023-02-12T09:17:00;102169.70;;;21.94;60.44
35307;BME280;21420;52.196;21.416;2023-02-12T09:19:27;102173.39;;;22.00;59.96
35307;BME280;21420;52.196;21.416;2023-02-12T09:21:54;102173.83;;;22.10;60.45
35307;BME280;21420;52.196;21.416;2023-02-12T09:24:24;102176.47;;;22.49;60.59
35307;BME280;21420;52.196;21.416;2023-02-12T09:26:54;102179.27;;;22.75;60.24
35307;BME280;21420;52.196;21.416;2023-02-12T09:29:21;102181.19;;;22.71;60.03
35307;BME280;21420;52.196;21.416;2023-02-12T09:31:48;102181.41;;;23.27;61.03
35307;BME280;21420;52.196;21.416;2023-02-12T09:34:15;102182.77;;;23.91;61.44
35307;BME280;21420;52.196;21.416;2023-02-12T09:36:42;102184.14;;;23.91;59.86
35307;BME280;21420;52.196;21.416;2023-02-12T09:39:09;102192.52;;;23.82;59.69
35307;BME280;21420;52.196;21.416;2023-02-12T09:52:28;102205.63;;;23.84;57.71
35307;BME280;21420;52.196;21.416;2023-02-12T09:54:57;102209.27;;;23.52;57.53
35307;BME280;21420;52.196;21.416;2023-02-12T09:57:35;102212.27;;;23.36;57.45
35307;BME280;21420;52.196;21.416;2023-02-12T10:00:22;102210.36;;;22.87;56.57
35307;BME280;21420;52.196;21.416;2023-02-12T10:02:52;102218.81;;;22.49;56.97
35307;BME280;21420;52.196;21.416;2023-02-12T10:05:24;102218.38;;;22.68;57.47
35307;BME280;21420;52.196;21.416;2023-02-12T10:11:18;102207.92;;;21.57;55.48
35307;BME280;21420;52.196;21.416;2023-02-12T10:19:29;102200.61;;;20.80;55.53
35307;BME280;21420;52.196;21.416;2023-02-12T10:22:16;102193.66;;;20.61;55.95
35307;BME280;21420;52.196;21.416;2023-02-12T10:28:37;102186.84;;;19.94;54.83
35307;BME280;21420;52.196;21.416;2023-02-12T10:33:49;102198.93;;;19.49;55.94
35307;BME280;21420;52.196;21.416;2023-02-12T10:39:35;102202.89;;;19.99;56.40
35307;BME280;21420;52.196;21.416;2023-02-12T10:42:44;102206.34;;;19.67;54.88
35307;BME280;21420;52.196;21.416;2023-02-12T10:48:56;102202.51;;;18.25;53.96
35307;BME280;21420;52.196;21.416;2023-02-12T10:54:45;102197.30;;;17.71;54.64
35307;BME280;21420;52.196;21.416;2023-02-12T10:57:19;102191.62;;;17.45;54.79
35307;BME280;21420;52.196;21.416;2023-02-12T10:59:50;102190.38;;;17.46;55.15
35307;BME280;21420;52.196;21.416;2023-02-12T11:04:48;102184.72;;;17.11;54.72
35307;BME280;21420;52.196;21.416;2023-02-12T11:07:16;102190.40;;;16.96;54.78
35307;BME280;21420;52.196;21.416;2023-02-12T11:09:48;102195.70;;;16.73;54.23
35307;BME280;21420;52.196;21.416;2023-02-12T11:14:59;102191.30;;;16.09;54.64
35307;BME280;21420;52.196;21.416;2023-02-12T11:22:56;102199.40;;;15.26;53.95
35307;BME280;21420;52.196;21.416;2023-02-12T11:25:25;102195.98;;;15.15;54.75
35307;BME280;21420;52.196;21.416;2023-02-12T11:28:17;102195.95;;;14.96;54.21
35307;BME280;21420;52.196;21.416;2023-02-12T11:31:03;102194.64;;;14.37;53.44
35307;BME280;21420;52.196;21.416;2023-02-12T11:33:43;102192.40;;;13.66;53.20
35307;BME280;21420;52.196;21.416;2023-02-12T11:36:13;102188.39;;;13.23;53.51
35307;BME280;21420;52.196;21.416;2023-02-12T11:39:08;102187.82;;;12.81;53.29
35307;BME280;21420;52.196;21.416;2023-02-12T11:41:42;102188.36;;;12.47;53.47
35307;BME280;21420;52.196;21.416;2023-02-12T11:44:19;102187.57;;;12.30;54.04
35307;BME280;21420;52.196;21.416;2023-02-12T11:46:59;102186.70;;;12.71;54.75
35307;BME280;21420;52.196;21.416;2023-02-12T11:49:33;102183.69;;;12.71;54.38
35307;BME280;21420;52.196;21.416;2023-02-12T11:52:02;102173.86;;;12.91;54.60
35307;BME280;21420;52.196;21.416;2023-02-12T11:54:35;102176.92;;;12.97;54.25
35307;BME280;21420;52.196;21.416;2023-02-12T11:57:04;102186.23;;;13.01;54.47
35307;BME280;21420;52.196;21.416;2023-02-12T11:59:37;102189.72;;;12.98;54.03
35307;BME280;21420;52.196;21.416;2023-02-12T12:02:22;102187.02;;;12.80;53.99
35307;BME280;21420;52.196;21.416;2023-02-12T12:04:54;102178.40;;;12.82;53.99
35307;BME280;21420;52.196;21.416;2023-02-12T12:07:29;102179.08;;;12.57;53.68
35307;BME280;21420;52.196;21.416;2023-02-12T12:10:43;102182.13;;;12.34;53.67
35307;BME280;21420;52.196;21.416;2023-02-12T12:13:16;102177.41;;;12.10;53.30
35307;BME280;21420;52.196;21.416;2023-02-12T12:15:48;102182.17;;;11.92;53.47
35307;BME280;21420;52.196;21.416;2023-02-12T12:18:45;102184.50;;;11.82;53.50
35307;BME280;21420;52.196;21.416;2023-02-12T12:24:52;102174.15;;;12.58;54.98
35307;BME280;21420;52.196;21.416;2023-02-12T12:30:57;102160.45;;;12.20;53.40
35307;BME280;21420;52.196;21.416;2023-02-12T12:33:46;102155.67;;;11.97;53.58
35307;BME280;21420;52.196;21.416;2023-02-12T12:39:15;102157.60;;;11.21;53.14
35307;BME280;21420;52.196;21.416;2023-02-12T12:42:13;102155.23;;;10.82;53.03
35307;BME280;21420;52.196;21.416;2023-02-12T12:50:06;102138.13;;;9.84;53.30
35307;BME280;21420;52.196;21.416;2023-02-12T12:55:52;102132.89;;;9.46;53.43
35307;BME280;21420;52.196;21.416;2023-02-12T13:07:28;102138.27;;;8.62;53.58
35307;BME280;21420;52.196;21.416;2023-02-12T13:27:05;102130.50;;;7.50;53.66
35307;BME280;21420;52.196;21.416;2023-02-12T13:30:20;102130.79;;;7.45;53.87
35307;BME280;21420;52.196;21.416;2023-02-12T13:35:28;102130.88;;;7.31;53.94
35307;BME280;21420;52.196;21.416;2023-02-12T13:37:58;102132.36;;;7.48;54.39
35307;BME280;21420;52.196;21.416;2023-02-12T13:40:28;102131.59;;;7.71;54.63
35307;BME280;21420;52.196;21.416;2023-02-12T13:45:54;102135.80;;;7.74;54.23
35307;BME280;21420;52.196;21.416;2023-02-12T13:54:21;102141.45;;;7.62;54.09
35307;BME280;21420;52.196;21.416;2023-02-12T13:56:57;102138.35;;;7.41;53.94
35307;BME280;21420;52.196;21.416;2023-02-12T14:02:05;102143.05;;;7.06;54.02
35307;BME280;21420;52.196;21.416;2023-02-12T14:04:57;102142.54;;;6.95;54.10
35307;BME280;21420;52.196;21.416;2023-02-12T14:07:44;102137.15;;;6.77;54.10
35307;BME280;21420;52.196;21.416;2023-02-12T14:10:20;102132.34;;;6.57;54.11
35307;BME280;21420;52.196;21.416;2023-02-12T14:12:48;102133.92;;;6.36;54.01
35307;BME280;21420;52.196;21.416;2023-02-12T14:15:27;102132.20;;;6.15;54.04
35307;BME280;21420;52.196;21.416;2023-02-12T14:28:51;102136.27;;;5.37;54.37
35307;BME280;21420;52.196;21.416;2023-02-12T14:31:29;102136.75;;;5.24;54.63
35307;BME280;21420;52.196;21.416;2023-02-12T14:41:46;102137.41;;;4.69;54.67
35307;BME280;21420;52.196;21.416;2023-02-12T14:46:53;102144.92;;;4.48;54.84
35307;BME280;21420;52.196;21.416;2023-02-12T14:49:26;102147.68;;;4.36;54.81
35307;BME280;21420;52.196;21.416;2023-02-12T14:52:01;102144.48;;;4.19;54.82
35307;BME280;21420;52.196;21.416;2023-02-12T14:54:37;102146.52;;;4.06;54.95
35307;BME280;21420;52.196;21.416;2023-02-12T14:57:34;102145.20;;;3.91;55.10
35307;BME280;21420;52.196;21.416;2023-02-12T15:05:25;102150.22;;;3.45;55.25
35307;BME280;21420;52.196;21.416;2023-02-12T15:07:59;102148.41;;;3.31;55.27
35307;BME280;21420;52.196;21.416;2023-02-12T15:10:38;102151.70;;;3.17;55.43
35307;BME280;21420;52.196;21.416;2023-02-12T15:13:28;102152.70;;;3.02;55.39
35307;BME280;21420;52.196;21.416;2023-02-12T15:16:22;102150.99;;;2.86;55.54
35307;BME280;21420;52.196;21.416;2023-02-12T15:19:15;102154.05;;;2.74;55.56
35307;BME280;21420;52.196;21.416;2023-02-12T15:21:45;102154.81;;;2.63;55.81
35307;BME280;21420;52.196;21.416;2023-02-12T15:24:13;102159.08;;;2.55;55.78
35307;BME280;21420;52.196;21.416;2023-02-12T15:26:51;102160.73;;;2.46;55.75
35307;BME280;21420;52.196;21.416;2023-02-12T15:29:36;102164.87;;;2.37;55.86
35307;BME280;21420;52.196;21.416;2023-02-12T15:32:13;102169.08;;;2.31;56.02
35307;BME280;21420;52.196;21.416;2023-02-12T15:34:41;102166.48;;;2.25;56.17
35307;BME280;21420;52.196;21.416;2023-02-12T15:37:08;102161.85;;;2.18;56.17
35307;BME280;21420;52.196;21.416;2023-02-12T15:39:40;102166.35;;;2.09;56.22
35307;BME280;21420;52.196;21.416;2023-02-12T15:42:30;102176.14;;;2.02;56.33
35307;BME280;21420;52.196;21.416;2023-02-12T15:47:59;102183.67;;;1.84;56.45
35307;BME280;21420;52.196;21.416;2023-02-12T15:50:28;102181.54;;;1.75;56.48
35307;BME280;21420;52.196;21.416;2023-02-12T15:52:55;102182.48;;;1.67;56.49
35307;BME280;21420;52.196;21.416;2023-02-12T15:55:25;102186.00;;;1.61;56.68
35307;BME280;21420;52.196;21.416;2023-02-12T15:57:55;102187.82;;;1.56;56.74
35307;BME280;21420;52.196;21.416;2023-02-12T16:02:53;102195.05;;;1.47;56.78
35307;BME280;21420;52.196;21.416;2023-02-12T16:05:21;102200.41;;;1.41;56.68
35307;BME280;21420;52.196;21.416;2023-02-12T16:07:49;102195.88;;;1.36;56.98
35307;BME280;21420;52.196;21.416;2023-02-12T16:10:18;102191.66;;;1.33;57.09
35307;BME280;21420;52.196;21.416;2023-02-12T16:12:47;102187.98;;;1.32;57.09